sensor_id;sensor_type;location;lat;lon;timestamp;pressure;altitude;pressure_sealevel;temperature;humidity
65384;BME280;51986;52.788;41.368;2023-04-28T00:00:00;99033.25;;;14.81;57.93
65384;BME280;51986;52.788;41.368;2023-04-28T00:02:30;99070.81;;;14.92;58.73
65384;BME280;51986;52.788;41.368;2023-04-28T00:04:57;99067.97;;;14.86;58.25
65384;BME280;51986;52.788;41.368;2023-04-28T00:07:24;99064.13;;;15.00;58.48
65384;BME280;51986;52.788;41.368;2023-04-28T00:09:51;99050.22;;;14.96;58.80
65384;BME280;51986;52.788;41.368;2023-04-28T00:12:18;99044.50;;;14.85;58.74
65384;BME280;51986;52.788;41.368;2023-04-28T00:14:45;99018.28;;;14.74;58.58
65384;BME280;51986;52.788;41.368;2023-04-28T00:17:12;99027.38;;;14.99;58.87
65384;BME280;51986;52.788;41.368;2023-04-28T00:19:39;99028.34;;;15.05;58.65
65384;BME280;51986;52.788;41.368;2023-04-28T00:22:06;99014.53;;;14.97;59.08
65384;BME280;51986;52.788;41.368;2023-04-28T00:24:33;99028.44;;;15.01;59.04
65384;BME280;51986;52.788;41.368;2023-04-28T00:27:00;99021.09;;;15.05;58.88
65384;BME280;51986;52.788;41.368;2023-04-28T00:29:28;99021.66;;;14.87;59.55
65384;BME280;51986;52.788;41.368;2023-04-28T00:31:54;99005.91;;;14.93;58.73
65384;BME280;51986;52.788;41.368;2023-04-28T00:34:22;99005.41;;;14.98;58.81
65384;BME280;51986;52.788;41.368;2023-04-28T00:36:49;98992.28;;;15.16;58.41
65384;BME280;51986;52.788;41.368;2023-04-28T00:39:15;98973.19;;;15.09;58.32
65384;BME280;51986;52.788;41.368;2023-04-28T00:41:42;99010.34;;;15.22;57.82
65384;BME280;51986;52.788;41.368;2023-04-28T00:44:10;99019.28;;;15.15;58.83
65384;BME280;51986;52.788;41.368;2023-04-28T00:46:37;98967.69;;;15.03;58.96
65384;BME280;51986;52.788;41.368;2023-04-28T00:52:09;98985.91;;;15.14;58.55
65384;BME280;51986;52.788;41.368;2023-04-28T00:54:54;99003.34;;;15.28;58.41
65384;BME280;51986;52.788;41.368;2023-04-28T01:00:07;98989.63;;;15.16;58.86
65384;BME280;51986;52.788;41.368;2023-04-28T01:02:35;99002.22;;;15.03;59.44
65384;BME280;51986;52.788;41.368;2023-04-28T01:05:03;98999.03;;;14.83;59.52
65384;BME280;51986;52.788;41.368;2023-04-28T01:07:49;98999.03;;;14.83;60.13
65384;BME280;51986;52.788;41.368;2023-04-28T01:10:17;99002.84;;;14.82;60.15
65384;BME280;51986;52.788;41.368;2023-04-28T01:12:44;99014.00;;;14.89;60.16
65384;BME280;51986;52.788;41.368;2023-04-28T01:15:18;98988.94;;;14.90;59.55
65384;BME280;51986;52.788;41.368;2023-04-28T01:17:48;98991.25;;;15.01;59.82
65384;BME280;51986;52.788;41.368;2023-04-28T01:20:15;98998.50;;;14.88;60.13
65384;BME280;51986;52.788;41.368;2023-04-28T01:25:28;99009.56;;;14.74;60.28
65384;BME280;51986;52.788;41.368;2023-04-28T01:28:14;99014.75;;;14.90;60.16
65384;BME280;51986;52.788;41.368;2023-04-28T01:30:41;99008.91;;;14.82;59.86
65384;BME280;51986;52.788;41.368;2023-04-28T01:33:08;99009.66;;;14.83;59.32
65384;BME280;51986;52.788;41.368;2023-04-28T01:35:35;99004.88;;;14.78;59.06
65384;BME280;51986;52.788;41.368;2023-04-28T01:38:02;99013.72;;;14.75;58.86
65384;BME280;51986;52.788;41.368;2023-04-28T01:40:47;98999.03;;;14.83;58.42
65384;BME280;51986;52.788;41.368;2023-04-28T01:45:59;99000.00;;;14.89;58.41
65384;BME280;51986;52.788;41.368;2023-04-28T01:48:26;98980.88;;;14.94;58.44
65384;BME280;51986;52.788;41.368;2023-04-28T01:50:53;98993.63;;;14.74;58.67
65384;BME280;51986;52.788;41.368;2023-04-28T01:53:39;98999.25;;;14.76;59.06
65384;BME280;51986;52.788;41.368;2023-04-28T01:56:06;99011.50;;;14.60;60.03
65384;BME280;51986;52.788;41.368;2023-04-28T01:58:34;99004.16;;;14.64;60.33
65384;BME280;51986;52.788;41.368;2023-04-28T02:01:01;98986.09;;;14.59;60.55
65384;BME280;51986;52.788;41.368;2023-04-28T02:03:28;98990.78;;;14.55;60.18
65384;BME280;51986;52.788;41.368;2023-04-28T02:05:55;98972.50;;;14.57;60.20
65384;BME280;51986;52.788;41.368;2023-04-28T02:08:59;98986.53;;;14.71;60.63
65384;BME280;51986;52.788;41.368;2023-04-28T02:14:12;99015.72;;;14.71;60.46
65384;BME280;51986;52.788;41.368;2023-04-28T02:16:39;98993.53;;;14.64;60.06
65384;BME280;51986;52.788;41.368;2023-04-28T02:19:07;98998.72;;;14.68;60.20
65384;BME280;51986;52.788;41.368;2023-04-28T02:21:52;98997.25;;;14.67;60.10
65384;BME280;51986;52.788;41.368;2023-04-28T02:24:19;98997.16;;;14.71;59.90
65384;BME280;51986;52.788;41.368;2023-04-28T02:27:05;99007.00;;;14.83;59.75
65384;BME280;51986;52.788;41.368;2023-04-28T02:29:32;99016.97;;;14.79;59.64
65384;BME280;51986;52.788;41.368;2023-04-28T02:31:59;98988.25;;;14.64;59.60
65384;BME280;51986;52.788;41.368;2023-04-28T02:34:26;99022.84;;;14.61;60.48
65384;BME280;51986;52.788;41.368;2023-04-28T02:36:53;99013.38;;;14.73;60.48
65384;BME280;51986;52.788;41.368;2023-04-28T02:39:20;99024.31;;;14.49;60.67
65384;BME280;51986;52.788;41.368;2023-04-28T02:41:47;99027.53;;;14.70;60.48
65384;BME280;51986;52.788;41.368;2023-04-28T02:44:14;99005.84;;;14.58;60.47
65384;BME280;51986;52.788;41.368;2023-04-28T02:49:27;99019.53;;;14.82;59.73
65384;BME280;51986;52.788;41.368;2023-04-28T02:54:39;99022.69;;;15.03;59.27
65384;BME280;51986;52.788;41.368;2023-04-28T02:57:06;99024.78;;;15.21;58.50
65384;BME280;51986;52.788;41.368;2023-04-28T02:59:33;99015.88;;;15.27;57.50
65384;BME280;51986;52.788;41.368;2023-04-28T03:02:00;99005.41;;;15.89;56.56
65384;BME280;51986;52.788;41.368;2023-04-28T03:04:27;99017.13;;;16.94;52.88
65384;BME280;51986;52.788;41.368;2023-04-28T03:07:31;99025.59;;;17.94;50.31
65384;BME280;51986;52.788;41.368;2023-04-28T03:09:58;99025.13;;;18.14;49.27
65384;BME280;51986;52.788;41.368;2023-04-28T03:12:25;99034.50;;;18.85;47.63
65384;BME280;51986;52.788;41.368;2023-04-28T03:14:52;99027.69;;;19.08;47.11
65384;BME280;51986;52.788;41.368;2023-04-28T03:17:19;99015.97;;;19.05;45.81
65384;BME280;51986;52.788;41.368;2023-04-28T03:20:05;99033.53;;;19.84;45.68
65384;BME280;51986;52.788;41.368;2023-04-28T03:22:33;99005.91;;;20.72;42.52
65384;BME280;51986;52.788;41.368;2023-04-28T03:25:00;99020.56;;;21.38;40.76
65384;BME280;51986;52.788;41.368;2023-04-28T03:27:31;99020.63;;;22.21;39.06
65384;BME280;51986;52.788;41.368;2023-04-28T03:29:58;99019.66;;;22.56;38.29
65384;BME280;51986;52.788;41.368;2023-04-28T03:32:25;99027.53;;;23.14;36.66
65384;BME280;51986;52.788;41.368;2023-04-28T03:34:53;98994.91;;;23.82;35.29
65384;BME280;51986;52.788;41.368;2023-04-28T03:37:19;99025.50;;;24.13;34.69
65384;BME280;51986;52.788;41.368;2023-04-28T03:39:47;99023.47;;;24.64;33.23
65384;BME280;51986;52.788;41.368;2023-04-28T03:42:13;99012.72;;;24.58;33.49
65384;BME280;51986;52.788;41.368;2023-04-28T03:45:04;98995.19;;;25.04;32.18
65384;BME280;51986;52.788;41.368;2023-04-28T03:47:32;99030.81;;;24.80;32.42
65384;BME280;51986;52.788;41.368;2023-04-28T03:49:59;99011.16;;;24.80;32.81
65384;BME280;51986;52.788;41.368;2023-04-28T03:52:26;99023.94;;;24.85;32.70
65384;BME280;51986;52.788;41.368;2023-04-28T03:54:54;99019.25;;;24.85;32.78
65384;BME280;51986;52.788;41.368;2023-04-28T03:57:21;99017.44;;;25.63;31.87
65384;BME280;51986;52.788;41.368;2023-04-28T03:59:49;99028.66;;;26.03;30.93
65384;BME280;51986;52.788;41.368;2023-04-28T04:02:16;99021.53;;;26.35;30.22
65384;BME280;51986;52.788;41.368;2023-04-28T04:04:43;99004.41;;;26.27;30.48
65384;BME280;51986;52.788;41.368;2023-04-28T04:07:10;99025.66;;;25.41;31.34
65384;BME280;51986;52.788;41.368;2023-04-28T04:09:38;99028.94;;;23.86;34.20
65384;BME280;51986;52.788;41.368;2023-04-28T04:12:24;99036.53;;;24.21;34.14
65384;BME280;51986;52.788;41.368;2023-04-28T04:14:51;99028.91;;;24.08;33.80
65384;BME280;51986;52.788;41.368;2023-04-28T04:17:19;99027.94;;;23.72;34.79
65384;BME280;51986;52.788;41.368;2023-04-28T04:19:46;99041.59;;;22.86;35.89
65384;BME280;51986;52.788;41.368;2023-04-28T04:22:14;99019.84;;;22.47;36.60
65384;BME280;51986;52.788;41.368;2023-04-28T04:24:41;99038.56;;;21.78;38.24
65384;BME280;51986;52.788;41.368;2023-04-28T04:27:08;99028.16;;;21.19;39.22
65384;BME280;51986;52.788;41.368;2023-04-28T04:29:38;99030.50;;;20.91;40.07
65384;BME280;51986;52.788;41.368;2023-04-28T04:32:10;99014.19;;;20.39;40.62
65384;BME280;51986;52.788;41.368;2023-04-28T04:34:38;99018.09;;;20.23;41.34
65384;BME280;51986;52.788;41.368;2023-04-28T04:37:05;99023.81;;;20.31;41.38
65384;BME280;51986;52.788;41.368;2023-04-28T04:39:36;99026.94;;;20.29;41.10
65384;BME280;51986;52.788;41.368;2023-04-28T04:42:03;99042.34;;;20.34;40.94
65384;BME280;51986;52.788;41.368;2023-04-28T04:45:04;99046.88;;;20.93;39.52
65384;BME280;51986;52.788;41.368;2023-04-28T04:47:31;99040.66;;;21.42;38.98
65384;BME280;51986;52.788;41.368;2023-04-28T04:49:58;99037.47;;;21.64;37.70
65384;BME280;51986;52.788;41.368;2023-04-28T04:52:26;99040.41;;;21.92;37.45
65384;BME280;51986;52.788;41.368;2023-04-28T04:54:53;99032.50;;;21.57;38.00
65384;BME280;51986;52.788;41.368;2023-04-28T04:57:22;99051.41;;;21.68;37.68
65384;BME280;51986;52.788;41.368;2023-04-28T05:00:09;99024.72;;;21.59;37.54
65384;BME280;51986;52.788;41.368;2023-04-28T05:02:36;99025.03;;;21.67;37.28
65384;BME280;51986;52.788;41.368;2023-04-28T05:05:05;99050.50;;;21.77;37.48
65384;BME280;51986;52.788;41.368;2023-04-28T05:08:13;99008.81;;;21.82;36.66
65384;BME280;51986;52.788;41.368;2023-04-28T05:10:40;99046.03;;;22.20;36.83
65384;BME280;51986;52.788;41.368;2023-04-28T05:13:25;99033.75;;;21.88;36.38
65384;BME280;51986;52.788;41.368;2023-04-28T05:15:58;99054.66;;;22.30;36.16
65384;BME280;51986;52.788;41.368;2023-04-28T05:18:31;99039.09;;;22.08;36.28
65384;BME280;51986;52.788;41.368;2023-04-28T05:23:44;99052.00;;;22.36;35.29
65384;BME280;51986;52.788;41.368;2023-04-28T05:26:11;99054.03;;;22.41;35.14
65384;BME280;51986;52.788;41.368;2023-04-28T05:28:39;99048.59;;;22.35;36.38
65384;BME280;51986;52.788;41.368;2023-04-28T05:31:07;99070.63;;;22.45;35.01
65384;BME280;51986;52.788;41.368;2023-04-28T05:33:34;98716.16;;;22.41;35.39
65384;BME280;51986;52.788;41.368;2023-04-28T05:36:01;99066.75;;;22.14;34.84
65384;BME280;51986;52.788;41.368;2023-04-28T05:38:28;99055.56;;;22.21;34.60
65384;BME280;51986;52.788;41.368;2023-04-28T05:40:55;99066.47;;;22.44;34.04
65384;BME280;51986;52.788;41.368;2023-04-28T05:43:22;99069.63;;;22.37;34.56
65384;BME280;51986;52.788;41.368;2023-04-28T05:45:50;99066.47;;;22.44;34.30
65384;BME280;51986;52.788;41.368;2023-04-28T05:48:18;99043.88;;;22.62;34.05
65384;BME280;51986;52.788;41.368;2023-04-28T05:50:45;99039.25;;;22.62;34.13
65384;BME280;51986;52.788;41.368;2023-04-28T05:53:12;99063.88;;;22.92;33.59
65384;BME280;51986;52.788;41.368;2023-04-28T05:55:39;99067.06;;;22.96;34.40
65384;BME280;51986;52.788;41.368;2023-04-28T05:58:07;99069.84;;;23.13;31.48
65384;BME280;51986;52.788;41.368;2023-04-28T06:00:34;99047.63;;;23.29;32.50
65384;BME280;51986;52.788;41.368;2023-04-28T06:03:02;99028.75;;;23.13;31.77
65384;BME280;51986;52.788;41.368;2023-04-28T06:05:29;99062.41;;;23.56;31.27
65384;BME280;51986;52.788;41.368;2023-04-28T06:07:57;99067.00;;;23.45;31.35
65384;BME280;51986;52.788;41.368;2023-04-28T06:10:25;99051.50;;;23.17;31.80
65384;BME280;51986;52.788;41.368;2023-04-28T06:12:52;99052.97;;;23.13;31.54
65384;BME280;51986;52.788;41.368;2023-04-28T06:15:18;99094.31;;;23.15;31.35
65384;BME280;51986;52.788;41.368;2023-04-28T06:17:47;99055.72;;;23.29;31.08
65384;BME280;51986;52.788;41.368;2023-04-28T06:20:14;99077.66;;;23.17;31.73
65384;BME280;51986;52.788;41.368;2023-04-28T06:22:42;99041.00;;;23.19;31.76
65384;BME280;51986;52.788;41.368;2023-04-28T06:25:09;99059.16;;;23.36;30.92
65384;BME280;51986;52.788;41.368;2023-04-28T06:27:45;99043.94;;;23.21;31.33
65384;BME280;51986;52.788;41.368;2023-04-28T06:30:20;99067.66;;;23.17;31.83
65384;BME280;51986;52.788;41.368;2023-04-28T06:32:47;99060.41;;;23.46;31.57
65384;BME280;51986;52.788;41.368;2023-04-28T06:35:15;99063.06;;;23.35;30.79
65384;BME280;51986;52.788;41.368;2023-04-28T06:37:42;99054.16;;;23.82;30.10
65384;BME280;51986;52.788;41.368;2023-04-28T06:40:09;99056.38;;;23.90;30.62
65384;BME280;51986;52.788;41.368;2023-04-28T06:42:41;99063.16;;;23.57;30.57
65384;BME280;51986;52.788;41.368;2023-04-28T06:45:10;99039.13;;;23.42;31.23
65384;BME280;51986;52.788;41.368;2023-04-28T06:47:37;99077.38;;;23.69;30.75
65384;BME280;51986;52.788;41.368;2023-04-28T06:50:07;99051.44;;;23.66;30.63
65384;BME280;51986;52.788;41.368;2023-04-28T06:52:35;99054.91;;;24.00;30.00
65384;BME280;51986;52.788;41.368;2023-04-28T06:55:06;99069.34;;;23.97;29.48
65384;BME280;51986;52.788;41.368;2023-04-28T06:57:34;99050.50;;;24.25;29.29
65384;BME280;51986;52.788;41.368;2023-04-28T07:00:01;99069.09;;;24.51;30.33
65384;BME280;51986;52.788;41.368;2023-04-28T07:02:28;99070.00;;;24.87;30.21
65384;BME280;51986;52.788;41.368;2023-04-28T07:04:55;99080.41;;;24.32;28.63
65384;BME280;51986;52.788;41.368;2023-04-28T07:10:08;99054.88;;;23.61;28.26
65384;BME280;51986;52.788;41.368;2023-04-28T07:12:35;99064.81;;;23.38;28.73
65384;BME280;51986;52.788;41.368;2023-04-28T07:15:02;99087.47;;;23.91;28.70
65384;BME280;51986;52.788;41.368;2023-04-28T07:17:29;99060.03;;;24.03;28.30
65384;BME280;51986;52.788;41.368;2023-04-28T07:19:56;99041.44;;;24.00;28.64
65384;BME280;51986;52.788;41.368;2023-04-28T07:22:23;99076.47;;;24.11;29.04
65384;BME280;51986;52.788;41.368;2023-04-28T07:24:51;99053.94;;;24.25;29.42
65384;BME280;51986;52.788;41.368;2023-04-28T07:27:18;99039.00;;;24.30;29.37
65384;BME280;51986;52.788;41.368;2023-04-28T07:29:45;99055.16;;;24.24;29.89
65384;BME280;51986;52.788;41.368;2023-04-28T07:32:12;99041.69;;;24.36;28.38
65384;BME280;51986;52.788;41.368;2023-04-28T07:34:39;99029.91;;;24.27;28.43
65384;BME280;51986;52.788;41.368;2023-04-28T07:37:06;99056.13;;;24.27;28.37
65384;BME280;51986;52.788;41.368;2023-04-28T07:39:33;99057.84;;;24.36;28.10
65384;BME280;51986;52.788;41.368;2023-04-28T07:42:01;99058.81;;;24.55;28.31
65384;BME280;51986;52.788;41.368;2023-04-28T07:47:14;99060.53;;;24.41;27.53
65384;BME280;51986;52.788;41.368;2023-04-28T07:49:41;99038.25;;;24.18;27.73
65384;BME280;51986;52.788;41.368;2023-04-28T07:52:26;99051.19;;;24.59;27.37
65384;BME280;51986;52.788;41.368;2023-04-28T07:57:57;99037.28;;;24.32;27.93
65384;BME280;51986;52.788;41.368;2023-04-28T08:00:24;99035.06;;;24.20;28.06
65384;BME280;51986;52.788;41.368;2023-04-28T08:02:51;99045.59;;;24.12;27.44
65384;BME280;51986;52.788;41.368;2023-04-28T08:05:19;99037.91;;;23.54;28.26
65384;BME280;51986;52.788;41.368;2023-04-28T08:07:46;99015.19;;;24.17;28.67
65384;BME280;51986;52.788;41.368;2023-04-28T08:10:13;99034.09;;;23.95;29.37
65384;BME280;51986;52.788;41.368;2023-04-28T08:12:40;99052.59;;;23.42;28.80
65384;BME280;51986;52.788;41.368;2023-04-28T08:15:08;99026.97;;;23.80;29.71
65384;BME280;51986;52.788;41.368;2023-04-28T08:17:35;99024.47;;;24.55;29.41
65384;BME280;51986;52.788;41.368;2023-04-28T08:20:03;99038.25;;;24.52;27.58
65384;BME280;51986;52.788;41.368;2023-04-28T08:22:30;99014.91;;;24.66;27.37
65384;BME280;51986;52.788;41.368;2023-04-28T08:24:57;99025.50;;;24.47;28.42
65384;BME280;51986;52.788;41.368;2023-04-28T08:27:24;99023.72;;;24.60;27.78
65384;BME280;51986;52.788;41.368;2023-04-28T08:29:51;99023.53;;;23.97;28.04
65384;BME280;51986;52.788;41.368;2023-04-28T08:32:18;99006.13;;;24.48;28.12
65384;BME280;51986;52.788;41.368;2023-04-28T08:34:45;99012.53;;;24.00;27.56
65384;BME280;51986;52.788;41.368;2023-04-28T08:37:12;99000.28;;;24.33;28.26
65384;BME280;51986;52.788;41.368;2023-04-28T08:39:39;99005.44;;;23.92;28.55
65384;BME280;51986;52.788;41.368;2023-04-28T08:42:07;99008.38;;;24.11;27.85
65384;BME280;51986;52.788;41.368;2023-04-28T08:44:38;99021.00;;;24.77;27.98
65384;BME280;51986;52.788;41.368;2023-04-28T08:47:11;98996.09;;;24.15;27.87
65384;BME280;51986;52.788;41.368;2023-04-28T08:49:39;99009.81;;;24.17;27.68
65384;BME280;51986;52.788;41.368;2023-04-28T08:52:11;98983.59;;;24.12;28.20
65384;BME280;51986;52.788;41.368;2023-04-28T08:54:39;98982.91;;;23.72;28.94
65384;BME280;51986;52.788;41.368;2023-04-28T08:57:09;99007.38;;;23.97;28.54
65384;BME280;51986;52.788;41.368;2023-04-28T08:59:38;98991.44;;;23.60;28.90
65384;BME280;51986;52.788;41.368;2023-04-28T09:02:06;98989.72;;;23.51;29.13
65384;BME280;51986;52.788;41.368;2023-04-28T09:04:34;98989.25;;;23.92;29.37
65384;BME280;51986;52.788;41.368;2023-04-28T09:07:01;98975.56;;;23.62;27.83
65384;BME280;51986;52.788;41.368;2023-04-28T09:09:29;98989.44;;;23.49;29.06
65384;BME280;51986;52.788;41.368;2023-04-28T09:12:03;98979.00;;;23.85;28.47
65384;BME280;51986;52.788;41.368;2023-04-28T09:14:32;98973.13;;;23.80;28.24
65384;BME280;51986;52.788;41.368;2023-04-28T09:17:00;98955.47;;;24.02;28.35
65384;BME280;51986;52.788;41.368;2023-04-28T09:19:35;98974.50;;;24.49;27.42
65384;BME280;51986;52.788;41.368;2023-04-28T09:22:03;98987.53;;;24.39;27.92
65384;BME280;51986;52.788;41.368;2023-04-28T09:24:52;98983.84;;;24.37;27.66
65384;BME280;51986;52.788;41.368;2023-04-28T09:27:25;98972.53;;;24.55;27.21
65384;BME280;51986;52.788;41.368;2023-04-28T09:29:54;98982.63;;;24.32;28.24
65384;BME280;51986;52.788;41.368;2023-04-28T09:32:22;98978.72;;;24.39;28.18
65384;BME280;51986;52.788;41.368;2023-04-28T09:34:53;98983.09;;;24.47;27.83
65384;BME280;51986;52.788;41.368;2023-04-28T09:37:22;98987.78;;;23.68;28.06
65384;BME280;51986;52.788;41.368;2023-04-28T09:39:50;98995.13;;;23.62;28.10
65384;BME280;51986;52.788;41.368;2023-04-28T09:44:59;99002.22;;;24.27;28.26
65384;BME280;51986;52.788;41.368;2023-04-28T09:47:26;98959.84;;;24.39;28.09
65384;BME280;51986;52.788;41.368;2023-04-28T09:49:57;98983.84;;;24.42;28.06
65384;BME280;51986;52.788;41.368;2023-04-28T09:52:25;98993.91;;;24.08;28.39
65384;BME280;51986;52.788;41.368;2023-04-28T09:54:55;98984.59;;;24.20;28.49
65384;BME280;51986;52.788;41.368;2023-04-28T09:57:22;98993.81;;;24.70;27.63
65384;BME280;51986;52.788;41.368;2023-04-28T09:59:51;98977.22;;;25.13;28.54
65384;BME280;51986;52.788;41.368;2023-04-28T10:02:20;98977.25;;;25.07;27.26
65384;BME280;51986;52.788;41.368;2023-04-28T10:04:50;99009.19;;;24.92;28.02
65384;BME280;51986;52.788;41.368;2023-04-28T10:07:18;98989.13;;;24.70;28.20
65384;BME280;51986;52.788;41.368;2023-04-28T10:09:50;98982.34;;;24.41;28.28
65384;BME280;51986;52.788;41.368;2023-04-28T10:12:18;98990.25;;;24.00;27.77
65384;BME280;51986;52.788;41.368;2023-04-28T10:14:46;98964.03;;;24.00;27.76
65384;BME280;51986;52.788;41.368;2023-04-28T10:17:16;98977.22;;;24.21;28.21
65384;BME280;51986;52.788;41.368;2023-04-28T10:19:44;98977.97;;;24.38;27.20
65384;BME280;51986;52.788;41.368;2023-04-28T10:27:38;98981.91;;;24.09;28.33
65384;BME280;51986;52.788;41.368;2023-04-28T10:38:12;98994.53;;;24.76;27.82
65384;BME280;51986;52.788;41.368;2023-04-28T10:40:49;98979.06;;;25.34;26.82
65384;BME280;51986;52.788;41.368;2023-04-28T10:56:14;98974.47;;;25.24;27.20
65384;BME280;51986;52.788;41.368;2023-04-28T10:58:43;98969.72;;;25.35;27.48
65384;BME280;51986;52.788;41.368;2023-04-28T11:06:23;98964.69;;;25.15;26.54
65384;BME280;51986;52.788;41.368;2023-04-28T11:08:52;98968.69;;;25.03;26.81
65384;BME280;51986;52.788;41.368;2023-04-28T11:11:29;98972.78;;;24.51;27.78
65384;BME280;51986;52.788;41.368;2023-04-28T11:17:01;98963.69;;;24.54;28.03
65384;BME280;51986;52.788;41.368;2023-04-28T11:19:31;98936.59;;;24.19;28.14
65384;BME280;51986;52.788;41.368;2023-04-28T11:22:00;98966.00;;;24.05;27.71
65384;BME280;51986;52.788;41.368;2023-04-28T11:24:30;98931.22;;;24.02;28.51
65384;BME280;51986;52.788;41.368;2023-04-28T11:26:57;98938.81;;;24.09;28.02
65384;BME280;51986;52.788;41.368;2023-04-28T11:29:34;98951.47;;;24.48;28.81
65384;BME280;51986;52.788;41.368;2023-04-28T11:32:06;98923.75;;;24.58;27.89
65384;BME280;51986;52.788;41.368;2023-04-28T11:34:34;98922.06;;;25.02;27.29
65384;BME280;51986;52.788;41.368;2023-04-28T11:37:02;98904.00;;;24.86;27.02
65384;BME280;51986;52.788;41.368;2023-04-28T11:39:32;98909.75;;;25.13;27.80
65384;BME280;51986;52.788;41.368;2023-04-28T11:42:01;98894.63;;;24.98;27.38
65384;BME280;51986;52.788;41.368;2023-04-28T11:44:30;98881.75;;;24.69;25.43
65384;BME280;51986;52.788;41.368;2023-04-28T11:46:59;98937.19;;;24.64;26.45
65384;BME280;51986;52.788;41.368;2023-04-28T11:49:47;98911.72;;;24.59;26.27
65384;BME280;51986;52.788;41.368;2023-04-28T11:52:15;98902.78;;;24.29;26.36
65384;BME280;51986;52.788;41.368;2023-04-28T11:54:42;98920.94;;;23.89;26.68
65384;BME280;51986;52.788;41.368;2023-04-28T11:57:17;98899.13;;;23.98;26.64
65384;BME280;51986;52.788;41.368;2023-04-28T11:59:44;98897.19;;;24.04;26.83
65384;BME280;51986;52.788;41.368;2023-04-28T12:02:13;98888.34;;;24.09;27.21
65384;BME280;51986;52.788;41.368;2023-04-28T12:04:42;98887.34;;;24.18;27.32
65384;BME280;51986;52.788;41.368;2023-04-28T12:07:14;98893.28;;;24.00;27.26
65384;BME280;51986;52.788;41.368;2023-04-28T12:09:43;98888.06;;;24.30;26.64
65384;BME280;51986;52.788;41.368;2023-04-28T12:12:12;98875.34;;;24.08;26.06
65384;BME280;51986;52.788;41.368;2023-04-28T12:15:04;98873.47;;;23.86;26.99
65384;BME280;51986;52.788;41.368;2023-04-28T12:17:36;98864.91;;;23.76;27.13
65384;BME280;51986;52.788;41.368;2023-04-28T12:20:05;98871.28;;;23.62;27.66
65384;BME280;51986;52.788;41.368;2023-04-28T12:22:47;98863.66;;;23.77;27.52
65384;BME280;51986;52.788;41.368;2023-04-28T12:25:16;98873.94;;;23.96;27.28
65384;BME280;51986;52.788;41.368;2023-04-28T12:27:59;98874.19;;;23.87;27.83
65384;BME280;51986;52.788;41.368;2023-04-28T12:30:28;98857.03;;;23.95;27.20
65384;BME280;51986;52.788;41.368;2023-04-28T12:32:56;98869.50;;;24.04;27.67
65384;BME280;51986;52.788;41.368;2023-04-28T12:35:24;98859.75;;;23.73;27.78
65384;BME280;51986;52.788;41.368;2023-04-28T12:37:52;98871.00;;;23.88;27.06
65384;BME280;51986;52.788;41.368;2023-04-28T12:40:19;98837.00;;;23.68;27.67
65384;BME280;51986;52.788;41.368;2023-04-28T12:42:46;98874.59;;;24.13;27.04
65384;BME280;51986;52.788;41.368;2023-04-28T12:45:16;98864.53;;;24.30;26.76
65384;BME280;51986;52.788;41.368;2023-04-28T12:47:43;98873.59;;;24.22;26.46
65384;BME280;51986;52.788;41.368;2023-04-28T12:50:10;98840.75;;;24.34;27.02
65384;BME280;51986;52.788;41.368;2023-04-28T12:52:39;98868.66;;;24.43;26.89
65384;BME280;51986;52.788;41.368;2023-04-28T12:55:07;98837.47;;;23.83;27.54
65384;BME280;51986;52.788;41.368;2023-04-28T12:57:34;98869.66;;;24.40;27.63
65384;BME280;51986;52.788;41.368;2023-04-28T13:00:06;98859.81;;;24.48;26.99
65384;BME280;51986;52.788;41.368;2023-04-28T13:02:34;98863.81;;;24.24;27.41
65384;BME280;51986;52.788;41.368;2023-04-28T13:05:01;98873.28;;;24.48;26.19
65384;BME280;51986;52.788;41.368;2023-04-28T13:07:29;98862.03;;;24.44;26.95
65384;BME280;51986;52.788;41.368;2023-04-28T13:09:56;98852.34;;;24.01;27.20
65384;BME280;51986;52.788;41.368;2023-04-28T13:12:23;98871.25;;;23.85;27.57
65384;BME280;51986;52.788;41.368;2023-04-28T13:14:50;98845.31;;;23.81;27.39
65384;BME280;51986;52.788;41.368;2023-04-28T13:17:17;98848.75;;;23.76;27.58
65384;BME280;51986;52.788;41.368;2023-04-28T13:19:44;98853.63;;;23.50;27.78
65384;BME280;51986;52.788;41.368;2023-04-28T13:22:12;98899.16;;;23.65;27.56
65384;BME280;51986;52.788;41.368;2023-04-28T13:24:39;98870.78;;;23.58;27.88
65384;BME280;51986;52.788;41.368;2023-04-28T13:27:06;98853.88;;;23.52;27.87
65384;BME280;51986;52.788;41.368;2023-04-28T13:29:33;98864.19;;;23.59;27.54
65384;BME280;51986;52.788;41.368;2023-04-28T13:32:00;98862.22;;;23.60;27.59
65384;BME280;51986;52.788;41.368;2023-04-28T13:34:27;98855.13;;;23.51;27.73
65384;BME280;51986;52.788;41.368;2023-04-28T13:36:53;98855.63;;;23.61;27.68
65384;BME280;51986;52.788;41.368;2023-04-28T13:39:20;98853.91;;;23.46;27.97
65384;BME280;51986;52.788;41.368;2023-04-28T13:41:48;98846.06;;;23.31;28.15
65384;BME280;51986;52.788;41.368;2023-04-28T13:44:15;98856.81;;;23.48;28.06
65384;BME280;51986;52.788;41.368;2023-04-28T13:46:42;98870.28;;;23.54;27.89
65384;BME280;51986;52.788;41.368;2023-04-28T13:49:09;98837.75;;;23.46;28.43
65384;BME280;51986;52.788;41.368;2023-04-28T13:51:36;98841.41;;;23.38;28.28
65384;BME280;51986;52.788;41.368;2023-04-28T13:54:04;98832.84;;;23.28;28.13
65384;BME280;51986;52.788;41.368;2023-04-28T13:56:31;98845.34;;;23.37;27.83
65384;BME280;51986;52.788;41.368;2023-04-28T13:58:58;98827.97;;;23.43;28.29
65384;BME280;51986;52.788;41.368;2023-04-28T14:01:25;98826.00;;;23.38;27.88
65384;BME280;51986;52.788;41.368;2023-04-28T14:03:52;98837.97;;;23.65;28.26
65384;BME280;51986;52.788;41.368;2023-04-28T14:06:20;98835.78;;;23.69;27.52
65384;BME280;51986;52.788;41.368;2023-04-28T14:08:47;98827.47;;;23.56;27.59